Time;durP1;ratioP1;P1;durP2;ratioP2;P2;SDS_P1;SDS_P2;PMS_P1;PMS_P2;Temp;Humidity;BMP_temperature;BMP_pressure;BME280_temperature;BME280_humidity;BME280_pressure;Samples;Min_cycle;Max_cycle;Signal;HPM_P1;HPM_P2
2023/09/28 00:02:08;;;;;;;6.70;5.40;;;;;;;;;;5042552;28;20265;-66
2023/09/28 00:04:35;;;;;;;4.80;4.50;;;;;;;;;;5040202;28;20222;-65
2023/09/28 00:07:01;;;;;;;4.78;4.40;;;;;;;;;;5042813;28;20215;-67
2023/09/28 00:09:28;;;;;;;5.13;4.57;;;;;;;;;;5032390;28;20231;-66
2023/09/28 00:11:55;;;;;;;5.05;4.70;;;;;;;;;;5043322;28;20200;-67
2023/09/28 00:14:23;;;;;;;5.03;4.72;;;;;;;;;;5043666;28;20685;-67
2023/09/28 00:16:49;;;;;;;5.50;5.00;;;;;;;;;;5039141;28;20614;-66
2023/09/28 00:19:16;;;;;;;6.05;5.10;;;;;;;;;;5036263;28;20255;-66
2023/09/28 00:21:42;;;;;;;5.40;5.00;;;;;;;;;;5034590;28;20204;-67
2023/09/28 00:24:09;;;;;;;5.07;4.68;;;;;;;;;;5042841;28;20557;-67
2023/09/28 00:26:37;;;;;;;6.25;4.47;;;;;;;;;;5039459;28;20238;-67
2023/09/28 00:29:06;;;;;;;6.38;4.43;;;;;;;;;;5037284;28;20719;-67
2023/09/28 00:31:32;;;;;;;4.68;4.25;;;;;;;;;;5036849;28;20211;-67
2023/09/28 00:33:59;;;;;;;5.90;3.95;;;;;;;;;;5039077;28;20188;-67
2023/09/28 00:36:25;;;;;;;4.50;4.13;;;;;;;;;;5034977;28;20216;-67
2023/09/28 00:38:53;;;;;;;4.03;3.83;;;;;;;;;;5039322;28;20204;-67
2023/09/28 00:41:19;;;;;;;4.40;4.10;;;;;;;;;;5040968;28;20223;-66
2023/09/28 00:43:46;;;;;;;3.90;3.70;;;;;;;;;;5034429;28;20230;-67
2023/09/28 00:46:16;;;;;;;4.30;4.00;;;;;;;;;;5042909;28;20199;-66
2023/09/28 00:48:48;;;;;;;5.45;4.72;;;;;;;;;;5040097;28;20228;-67
2023/09/28 00:51:15;;;;;;;6.75;4.25;;;;;;;;;;5042044;28;20207;-67
2023/09/28 00:53:42;;;;;;;4.22;4.03;;;;;;;;;;5029745;28;20255;-67
2023/09/28 00:56:08;;;;;;;4.68;4.10;;;;;;;;;;5043005;28;20208;-68
2023/09/28 00:58:38;;;;;;;4.60;4.30;;;;;;;;;;5040930;28;20253;-68
2023/09/28 01:01:06;;;;;;;5.97;4.38;;;;;;;;;;5041449;28;20223;-68
2023/09/28 01:03:34;;;;;;;4.57;4.28;;;;;;;;;;5041312;28;20207;-67
2023/09/28 01:06:05;;;;;;;6.45;4.45;;;;;;;;;;5042312;28;20670;-68
2023/09/28 01:08:32;;;;;;;4.18;3.92;;;;;;;;;;5040777;28;20314;-67
2023/09/28 01:10:58;;;;;;;5.68;4.88;;;;;;;;;;5042349;28;20208;-68
2023/09/28 01:13:27;;;;;;;4.63;4.32;;;;;;;;;;5037403;28;20230;-68
2023/09/28 01:15:53;;;;;;;4.65;4.32;;;;;;;;;;5037062;28;20212;-67
2023/09/28 01:18:22;;;;;;;4.43;4.18;;;;;;;;;;5034184;28;20795;-67
2023/09/28 01:20:51;;;;;;;4.97;4.68;;;;;;;;;;5034211;28;20238;-68
2023/09/28 01:23:20;;;;;;;4.88;4.53;;;;;;;;;;5036362;28;20255;-68
2023/09/28 01:25:49;;;;;;;5.63;5.15;;;;;;;;;;5036218;28;20212;-67
2023/09/28 01:28:17;;;;;;;6.78;4.80;;;;;;;;;;5046130;28;20223;-67
2023/09/28 01:30:44;;;;;;;4.65;4.25;;;;;;;;;;5046410;28;20277;-67
2023/09/28 01:33:11;;;;;;;4.80;4.50;;;;;;;;;;5046077;28;20208;-67
2023/09/28 01:35:37;;;;;;;5.50;4.93;;;;;;;;;;5045043;28;20206;-68
2023/09/28 01:38:10;;;;;;;5.78;5.20;;;;;;;;;;5046068;28;20227;-67
2023/09/28 01:40:38;;;;;;;5.55;4.70;;;;;;;;;;5044973;28;20207;-68
2023/09/28 01:43:05;;;;;;;7.43;5.32;;;;;;;;;;5045285;28;20733;-67
2023/09/28 01:45:31;;;;;;;5.95;5.25;;;;;;;;;;5044943;28;20200;-67
2023/09/28 01:47:58;;;;;;;5.80;5.25;;;;;;;;;;5045881;28;20728;-68
2023/09/28 01:50:24;;;;;;;6.28;5.32;;;;;;;;;;5045895;28;20203;-67
2023/09/28 01:52:51;;;;;;;5.38;4.85;;;;;;;;;;5044605;28;21143;-68
2023/09/28 01:55:17;;;;;;;6.63;5.00;;;;;;;;;;5045302;28;20207;-68
2023/09/28 01:57:46;;;;;;;5.13;4.72;;;;;;;;;;5039499;28;20269;-66
2023/09/28 02:00:14;;;;;;;7.47;5.15;;;;;;;;;;5039851;28;20674;-67
2023/09/28 02:02:42;;;;;;;5.65;5.15;;;;;;;;;;5039868;28;20218;-66
2023/09/28 02:05:08;;;;;;;8.52;5.22;;;;;;;;;;5039603;28;20204;-66
2023/09/28 02:07:36;;;;;;;5.68;4.90;;;;;;;;;;5026821;28;20207;-66
2023/09/28 02:10:04;;;;;;;4.90;4.50;;;;;;;;;;5045350;28;20208;-66
2023/09/28 02:12:31;;;;;;;6.82;5.35;;;;;;;;;;5043367;28;20749;-66
2023/09/28 02:15:00;;;;;;;8.32;6.13;;;;;;;;;;5044272;28;20569;-66
2023/09/28 02:17:29;;;;;;;6.78;6.18;;;;;;;;;;5043768;28;20204;-65
2023/09/28 02:19:55;;;;;;;6.07;5.63;;;;;;;;;;5045017;28;20841;-66
2023/09/28 02:22:22;;;;;;;7.70;6.75;;;;;;;;;;5045426;28;20235;-68
2023/09/28 02:24:51;;;;;;;6.80;6.20;;;;;;;;;;5042706;28;20207;-66
2023/09/28 02:27:17;;;;;;;7.38;6.10;;;;;;;;;;5043585;28;20203;-66
2023/09/28 02:29:44;;;;;;;7.15;6.10;;;;;;;;;;5042558;28;20278;-66
2023/09/28 02:32:13;;;;;;;6.40;5.90;;;;;;;;;;5044558;28;20753;-66
2023/09/28 02:34:40;;;;;;;7.03;6.10;;;;;;;;;;5042724;28;20203;-66
2023/09/28 02:37:07;;;;;;;7.07;6.35;;;;;;;;;;5037340;28;20227;-66
2023/09/28 02:39:35;;;;;;;7.93;6.43;;;;;;;;;;5037924;28;20290;-65
2023/09/28 02:42:07;;;;;;;6.95;6.18;;;;;;;;;;5044554;28;20692;-66
2023/09/28 02:44:34;;;;;;;9.52;6.63;;;;;;;;;;5039408;28;20210;-66
2023/09/28 02:47:03;;;;;;;6.22;5.72;;;;;;;;;;5039172;28;20279;-66
2023/09/28 02:49:32;;;;;;;7.35;6.65;;;;;;;;;;5040349;28;20229;-66
2023/09/28 02:51:59;;;;;;;6.68;6.05;;;;;;;;;;5041163;28;20203;-66
2023/09/28 02:54:26;;;;;;;7.43;6.72;;;;;;;;;;5040986;28;20204;-67
2023/09/28 02:56:53;;;;;;;10.52;6.65;;;;;;;;;;5041983;28;20208;-66
2023/09/28 02:59:22;;;;;;;8.30;7.50;;;;;;;;;;5041980;28;20199;-66
2023/09/28 03:01:48;;;;;;;7.78;7.05;;;;;;;;;;5044216;28;20203;-67
2023/09/28 03:04:16;;;;;;;8.68;6.88;;;;;;;;;;5044177;28;20227;-67
2023/09/28 03:06:44;;;;;;;10.27;6.75;;;;;;;;;;5042840;28;20234;-67
2023/09/28 03:09:12;;;;;;;9.65;8.27;;;;;;;;;;5043822;28;20231;-67
2023/09/28 03:11:39;;;;;;;9.43;6.80;;;;;;;;;;5042232;28;20261;-66
2023/09/28 03:14:06;;;;;;;10.15;7.65;;;;;;;;;;5044455;28;20242;-67
2023/09/28 03:16:32;;;;;;;7.35;6.65;;;;;;;;;;5042388;28;20363;-67
2023/09/28 03:19:00;;;;;;;8.95;7.47;;;;;;;;;;5043244;28;20219;-67
2023/09/28 03:21:29;;;;;;;10.05;7.00;;;;;;;;;;5034922;28;20215;-67
2023/09/28 03:23:58;;;;;;;6.65;6.05;;;;;;;;;;5042562;28;20243;-67
2023/09/28 03:26:25;;;;;;;9.30;7.68;;;;;;;;;;5038691;28;20207;-66
2023/09/28 03:28:52;;;;;;;9.75;7.80;;;;;;;;;;5038666;28;20237;-66
2023/09/28 03:31:18;;;;;;;9.35;6.97;;;;;;;;;;5038688;28;20204;-66
2023/09/28 03:33:45;;;;;;;8.93;6.68;;;;;;;;;;5038332;28;20230;-66
2023/09/28 03:36:12;;;;;;;7.60;6.88;;;;;;;;;;5039220;28;20214;-66
2023/09/28 03:38:39;;;;;;;7.03;6.32;;;;;;;;;;5042099;28;20206;-67
2023/09/28 03:41:08;;;;;;;8.30;6.60;;;;;;;;;;5043858;28;20211;-67
2023/09/28 03:43:35;;;;;;;9.15;6.50;;;;;;;;;;5042116;28;20211;-67
2023/09/28 03:46:03;;;;;;;7.80;6.30;;;;;;;;;;5043591;28;20211;-66
2023/09/28 03:48:30;;;;;;;6.97;6.28;;;;;;;;;;5041558;28;20235;-66
2023/09/28 03:50:56;;;;;;;7.53;6.72;;;;;;;;;;5043759;28;20211;-66
2023/09/28 03:53:23;;;;;;;12.25;6.65;;;;;;;;;;5044062;28;20196;-66
2023/09/28 03:55:50;;;;;;;6.40;5.80;;;;;;;;;;5042030;28;20215;-66
2023/09/28 03:58:19;;;;;;;10.75;7.28;;;;;;;;;;5043040;28;20200;-67
2023/09/28 04:00:46;;;;;;;6.57;5.97;;;;;;;;;;5039361;28;20772;-67
2023/09/28 04:03:13;;;;;;;9.02;6.65;;;;;;;;;;5043429;28;20223;-67
2023/09/28 04:05:40;;;;;;;8.05;6.40;;;;;;;;;;5042017;28;20559;-67
2023/09/28 04:08:07;;;;;;;6.22;5.63;;;;;;;;;;5042386;28;20200;-66
2023/09/28 04:10:34;;;;;;;6.32;5.53;;;;;;;;;;5041897;28;20277;-67
2023/09/28 04:13:02;;;;;;;6.35;5.72;;;;;;;;;;5028577;28;20219;-66
2023/09/28 04:15:31;;;;;;;7.43;5.97;;;;;;;;;;5037912;28;20213;-66
2023/09/28 04:17:58;;;;;;;10.02;6.78;;;;;;;;;;5039457;28;20243;-66
2023/09/28 04:20:25;;;;;;;7.40;6.75;;;;;;;;;;5038620;28;20204;-67
2023/09/28 04:22:52;;;;;;;9.07;6.65;;;;;;;;;;5035962;28;20231;-66
2023/09/28 04:25:21;;;;;;;6.43;5.90;;;;;;;;;;5034963;28;20214;-67
2023/09/28 04:27:49;;;;;;;7.68;6.57;;;;;;;;;;5042088;28;20204;-67
2023/09/28 04:30:17;;;;;;;6.55;5.90;;;;;;;;;;5041476;28;20281;-67
2023/09/28 04:32:45;;;;;;;7.65;5.90;;;;;;;;;;5040188;28;20200;-67
2023/09/28 04:35:13;;;;;;;6.75;5.80;;;;;;;;;;5040170;28;20204;-67
2023/09/28 04:37:40;;;;;;;8.02;6.22;;;;;;;;;;5041477;28;20207;-67
2023/09/28 04:40:09;;;;;;;6.72;5.82;;;;;;;;;;5042806;28;20204;-66
2023/09/28 04:42:36;;;;;;;6.40;5.88;;;;;;;;;;5038800;28;20210;-67
2023/09/28 04:45:04;;;;;;;6.15;5.53;;;;;;;;;;5042256;28;20195;-68
2023/09/28 04:47:32;;;;;;;7.70;5.85;;;;;;;;;;5037915;28;20677;-68
2023/09/28 04:50:01;;;;;;;5.82;5.22;;;;;;;;;;5043653;28;20250;-68
2023/09/28 04:52:29;;;;;;;6.80;6.20;;;;;;;;;;5040915;28;20577;-68
2023/09/28 04:54:56;;;;;;;5.90;5.40;;;;;;;;;;5041076;28;20207;-67
2023/09/28 04:57:24;;;;;;;7.25;6.03;;;;;;;;;;5041228;28;20234;-68
2023/09/28 04:59:51;;;;;;;7.40;6.57;;;;;;;;;;5026907;28;20208;-68
2023/09/28 05:02:19;;;;;;;7.43;6.72;;;;;;;;;;5038361;28;20692;-66
2023/09/28 05:04:46;;;;;;;7.22;6.53;;;;;;;;;;5041196;28;20408;-66
2023/09/28 05:07:14;;;;;;;9.23;6.40;;;;;;;;;;5041011;28;20557;-66
2023/09/28 05:09:42;;;;;;;11.48;6.57;;;;;;;;;;5046491;28;20615;-66
2023/09/28 05:12:09;;;;;;;6.65;5.95;;;;;;;;;;5046793;28;20199;-67
2023/09/28 05:14:36;;;;;;;6.72;5.63;;;;;;;;;;5039807;28;20235;-67
2023/09/28 05:17:04;;;;;;;8.55;6.28;;;;;;;;;;5044549;28;20200;-67
2023/09/28 05:19:31;;;;;;;8.52;6.78;;;;;;;;;;5034157;28;20216;-67
2023/09/28 05:21:58;;;;;;;5.95;5.35;;;;;;;;;;5046709;28;20247;-67
2023/09/28 05:24:26;;;;;;;7.82;7.03;;;;;;;;;;5045816;28;20210;-66
2023/09/28 05:26:54;;;;;;;9.63;6.47;;;;;;;;;;5043260;28;20200;-67
2023/09/28 05:29:22;;;;;;;6.97;6.38;;;;;;;;;;5046292;28;20586;-67
2023/09/28 05:31:49;;;;;;;9.27;5.68;;;;;;;;;;5044397;28;20209;-69
2023/09/28 05:34:16;;;;;;;6.55;5.95;;;;;;;;;;5040871;28;20212;-69
2023/09/28 05:36:44;;;;;;;10.05;6.63;;;;;;;;;;5041304;28;20203;-67
2023/09/28 05:39:12;;;;;;;6.65;5.95;;;;;;;;;;5041239;28;20203;-69
2023/09/28 05:41:41;;;;;;;8.88;6.68;;;;;;;;;;5044854;28;20215;-66
2023/09/28 05:44:08;;;;;;;6.55;5.93;;;;;;;;;;5045459;28;20670;-67
2023/09/28 05:46:35;;;;;;;6.97;5.90;;;;;;;;;;5044836;28;20226;-66
2023/09/28 05:49:02;;;;;;;6.30;5.70;;;;;;;;;;5046303;28;20713;-66
2023/09/28 05:51:29;;;;;;;7.50;6.70;;;;;;;;;;5045848;28;20207;-67
2023/09/28 05:53:56;;;;;;;9.30;6.80;;;;;;;;;;5045282;28;20253;-67
2023/09/28 05:56:23;;;;;;;7.57;6.20;;;;;;;;;;5045843;28;20960;-68
2023/09/28 05:58:52;;;;;;;7.93;6.35;;;;;;;;;;5044577;28;20211;-67
2023/09/28 06:01:21;;;;;;;7.95;6.63;;;;;;;;;;5040427;28;20200;-68
2023/09/28 06:03:50;;;;;;;8.82;7.13;;;;;;;;;;5044537;28;20554;-67
2023/09/28 06:06:18;;;;;;;7.25;6.13;;;;;;;;;;5042278;28;20204;-65
2023/09/28 06:08:46;;;;;;;11.23;7.25;;;;;;;;;;5040408;28;20207;-66
2023/09/28 06:11:13;;;;;;;8.20;7.03;;;;;;;;;;5040841;28;20658;-66
2023/09/28 06:13:41;;;;;;;7.45;6.30;;;;;;;;;;5039864;28;20207;-66
2023/09/28 06:16:11;;;;;;;7.55;6.75;;;;;;;;;;5036172;28;20197;-67
2023/09/28 06:18:38;;;;;;;7.93;6.18;;;;;;;;;;5025359;28;20236;-67
2023/09/28 06:21:06;;;;;;;6.75;6.05;;;;;;;;;;5037173;28;20196;-66
2023/09/28 06:23:33;;;;;;;6.68;6.07;;;;;;;;;;5043599;28;20309;-65
2023/09/28 06:26:01;;;;;;;8.77;7.25;;;;;;;;;;5045593;28;20214;-66
2023/09/28 06:28:28;;;;;;;7.68;6.88;;;;;;;;;;5045455;28;20200;-66
2023/09/28 06:30:55;;;;;;;8.77;7.00;;;;;;;;;;5038767;28;20239;-66
2023/09/28 06:33:24;;;;;;;9.27;6.30;;;;;;;;;;5028812;28;20208;-66
2023/09/28 06:35:51;;;;;;;6.85;6.25;;;;;;;;;;5036812;28;20795;-66
2023/09/28 06:38:19;;;;;;;7.50;6.05;;;;;;;;;;5045249;28;20207;-66
2023/09/28 06:40:47;;;;;;;8.90;5.90;;;;;;;;;;5032240;28;20248;-66
2023/09/28 06:43:14;;;;;;;6.18;5.65;;;;;;;;;;5037413;28;20254;-66
2023/09/28 06:45:41;;;;;;;6.88;6.03;;;;;;;;;;5040096;28;20553;-67
2023/09/28 06:48:08;;;;;;;8.15;5.95;;;;;;;;;;5041833;28;20200;-67
2023/09/28 06:50:39;;;;;;;7.63;6.07;;;;;;;;;;5042678;28;20235;-64
2023/09/28 06:53:06;;;;;;;6.93;6.22;;;;;;;;;;5045345;28;20208;-62
2023/09/28 06:55:33;;;;;;;111.80;56.75;;;;;;;;;;5038860;28;20216;-65
2023/09/28 06:58:00;;;;;;;19.88;15.98;;;;;;;;;;5036449;28;20344;-59
2023/09/28 07:00:29;;;;;;;8.23;7.43;;;;;;;;;;5039124;28;20204;-62
2023/09/28 07:02:56;;;;;;;11.38;7.43;;;;;;;;;;5041103;28;20204;-63
2023/09/28 07:05:23;;;;;;;9.70;8.40;;;;;;;;;;5045052;28;20207;-63
2023/09/28 07:07:52;;;;;;;11.52;8.18;;;;;;;;;;5041900;28;20811;-65
2023/09/28 07:10:19;;;;;;;9.45;8.55;;;;;;;;;;5039746;28;20231;-65
2023/09/28 07:12:46;;;;;;;10.80;8.60;;;;;;;;;;5039764;28;20219;-64
2023/09/28 07:15:13;;;;;;;8.40;7.60;;;;;;;;;;5039921;28;20200;-64
2023/09/28 07:17:40;;;;;;;8.35;7.55;;;;;;;;;;5039148;28;20244;-65
2023/09/28 07:20:08;;;;;;;9.60;8.43;;;;;;;;;;5041870;28;20689;-67
2023/09/28 07:22:35;;;;;;;11.55;8.30;;;;;;;;;;5041139;28;20231;-62
2023/09/28 07:25:06;;;;;;;10.07;8.70;;;;;;;;;;5034794;28;20209;-64
2023/09/28 07:27:33;;;;;;;11.75;8.30;;;;;;;;;;5025623;28;20554;-63
2023/09/28 07:30:05;;;;;;;10.02;8.45;;;;;;;;;;5039048;28;20232;-64
2023/09/28 07:32:32;;;;;;;9.00;7.07;;;;;;;;;;5036587;28;20301;-64
2023/09/28 07:34:59;;;;;;;11.88;7.72;;;;;;;;;;5041330;28;20207;-64
2023/09/28 07:37:27;;;;;;;11.57;8.02;;;;;;;;;;5027929;28;20675;-64
2023/09/28 07:39:54;;;;;;;8.98;8.10;;;;;;;;;;5033441;28;20200;-63
2023/09/28 07:42:23;;;;;;;10.38;7.47;;;;;;;;;;5039316;28;20196;-64
2023/09/28 07:44:51;;;;;;;53.38;32.20;;;;;;;;;;5033613;28;20720;-62
2023/09/28 07:47:18;;;;;;;42.33;26.55;;;;;;;;;;5041324;28;20203;-62
2023/09/28 07:49:46;;;;;;;12.88;7.93;;;;;;;;;;5032635;28;20315;-63
2023/09/28 07:52:13;;;;;;;9.60;7.78;;;;;;;;;;5019222;28;20211;-62
2023/09/28 07:54:40;;;;;;;9.90;7.88;;;;;;;;;;5033951;28;20234;-68
2023/09/28 07:57:08;;;;;;;8.40;7.57;;;;;;;;;;5040117;28;20235;-68
2023/09/28 07:59:36;;;;;;;8.57;7.63;;;;;;;;;;5040455;28;20216;-63
2023/09/28 08:02:04;;;;;;;9.55;7.10;;;;;;;;;;5043566;28;20207;-64
2023/09/28 08:04:31;;;;;;;8.85;6.70;;;;;;;;;;5043588;28;20211;-63
2023/09/28 08:06:59;;;;;;;8.13;7.32;;;;;;;;;;5038543;28;20318;-63
2023/09/28 08:09:26;;;;;;;10.48;8.20;;;;;;;;;;5028246;28;20215;-62
2023/09/28 08:11:53;;;;;;;10.60;7.25;;;;;;;;;;5035256;28;20652;-63
2023/09/28 08:14:21;;;;;;;11.32;7.43;;;;;;;;;;5033241;28;20227;-61
2023/09/28 08:16:50;;;;;;;11.98;7.75;;;;;;;;;;5043312;28;20203;-62
2023/09/28 08:19:19;;;;;;;10.80;7.22;;;;;;;;;;5042464;28;20219;-64
2023/09/28 08:21:47;;;;;;;8.00;7.15;;;;;;;;;;5032510;28;20236;-64
2023/09/28 08:24:13;;;;;;;7.00;6.32;;;;;;;;;;5041715;28;20662;-64
2023/09/28 08:26:40;;;;;;;8.85;6.38;;;;;;;;;;5036435;28;20208;-64
2023/09/28 08:29:07;;;;;;;7.45;6.75;;;;;;;;;;5035502;28;20196;-63
2023/09/28 08:31:34;;;;;;;7.45;6.78;;;;;;;;;;5036800;28;20227;-63
2023/09/28 08:34:03;;;;;;;8.57;6.43;;;;;;;;;;5039834;28;20215;-64
2023/09/28 08:36:30;;;;;;;6.53;5.93;;;;;;;;;;5031341;28;20204;-63
2023/09/28 08:38:57;;;;;;;9.60;7.38;;;;;;;;;;5042308;28;20212;-64
2023/09/28 08:41:28;;;;;;;8.88;6.43;;;;;;;;;;5040924;28;20203;-64
2023/09/28 08:43:59;;;;;;;9.10;6.18;;;;;;;;;;5039025;28;20208;-62
2023/09/28 08:46:29;;;;;;;6.13;5.53;;;;;;;;;;5022683;28;20238;-62
2023/09/28 08:48:57;;;;;;;9.70;6.43;;;;;;;;;;5032192;28;20208;-63
2023/09/28 08:51:26;;;;;;;10.13;6.10;;;;;;;;;;5023003;28;20241;-63
2023/09/28 08:53:55;;;;;;;8.18;6.28;;;;;;;;;;5020931;28;20208;-63
2023/09/28 08:56:22;;;;;;;8.38;5.88;;;;;;;;;;5022981;28;20222;-62
2023/09/28 08:58:50;;;;;;;6.78;6.18;;;;;;;;;;5038500;28;20321;-63
2023/09/28 09:01:18;;;;;;;6.00;5.50;;;;;;;;;;5042645;28;20204;-63
2023/09/28 09:03:45;;;;;;;6.43;4.75;;;;;;;;;;5040543;28;20512;-63
2023/09/28 09:06:12;;;;;;;5.47;5.07;;;;;;;;;;5037323;28;20227;-62
2023/09/28 09:08:44;;;;;;;5.10;4.80;;;;;;;;;;5037112;28;20207;-62
2023/09/28 09:11:14;;;;;;;6.63;5.18;;;;;;;;;;5040306;28;20228;-63
2023/09/28 09:13:49;;;;;;;5.57;5.18;;;;;;;;;;5042151;28;20210;-65
2023/09/28 09:16:16;;;;;;;5.57;5.07;;;;;;;;;;5040160;28;20809;-65
2023/09/28 09:18:43;;;;;;;6.78;4.75;;;;;;;;;;5036696;28;20860;-66
2023/09/28 09:21:10;;;;;;;6.28;5.68;;;;;;;;;;5022904;28;20216;-67
2023/09/28 09:23:38;;;;;;;6.10;5.35;;;;;;;;;;5035158;28;20235;-66
2023/09/28 09:26:16;;;;;;;4.85;4.65;;;;;;;;;;5037412;28;20238;-66
2023/09/28 09:28:44;;;;;;;6.03;5.10;;;;;;;;;;5034904;28;20195;-66
2023/09/28 09:31:11;;;;;;;5.68;4.10;;;;;;;;;;5037007;28;20231;-66
2023/09/28 09:33:38;;;;;;;5.28;4.72;;;;;;;;;;5037526;28;20211;-65
2023/09/28 09:36:06;;;;;;;4.28;3.97;;;;;;;;;;5038603;28;20208;-66
2023/09/28 09:38:33;;;;;;;5.43;4.40;;;;;;;;;;5038280;28;20693;-65
2023/09/28 09:41:00;;;;;;;4.53;4.20;;;;;;;;;;5042270;28;20220;-66
2023/09/28 09:43:32;;;;;;;4.85;4.40;;;;;;;;;;5040523;28;20328;-63
2023/09/28 09:45:59;;;;;;;9.55;4.70;;;;;;;;;;5040800;28;20349;-69
2023/09/28 09:48:26;;;;;;;4.60;4.30;;;;;;;;;;5040541;28;20231;-61
2023/09/28 09:50:53;;;;;;;7.72;4.00;;;;;;;;;;5046277;28;20226;-64
2023/09/28 09:53:21;;;;;;;4.22;3.83;;;;;;;;;;5034201;28;20219;-62
2023/09/28 09:55:51;;;;;;;6.60;4.30;;;;;;;;;;5024595;28;20210;-74
2023/09/28 09:58:19;;;;;;;4.18;3.85;;;;;;;;;;5040817;28;20261;-75
2023/09/28 10:00:48;;;;;;;5.15;3.97;;;;;;;;;;5044409;28;20207;-73
2023/09/28 10:03:16;;;;;;;4.78;4.35;;;;;;;;;;5044542;28;20567;-77
2023/09/28 10:05:43;;;;;;;4.60;4.30;;;;;;;;;;5044075;28;20192;-75
2023/09/28 10:08:12;;;;;;;5.10;4.57;;;;;;;;;;5045578;28;20209;-61
2023/09/28 10:10:40;;;;;;;10.40;5.25;;;;;;;;;;5043792;28;20308;-62
2023/09/28 10:13:07;;;;;;;4.22;3.67;;;;;;;;;;5042287;28;20215;-62
2023/09/28 10:15:34;;;;;;;4.47;4.05;;;;;;;;;;5040140;28;20211;-76
2023/09/28 10:18:03;;;;;;;3.97;3.78;;;;;;;;;;5041716;28;20220;-61
2023/09/28 10:20:31;;;;;;;3.25;3.15;;;;;;;;;;5040486;28;20207;-60
2023/09/28 10:22:58;;;;;;;3.80;3.53;;;;;;;;;;5045233;28;20263;-60
2023/09/28 10:25:27;;;;;;;4.55;3.63;;;;;;;;;;5043511;28;20212;-67
2023/09/28 10:27:59;;;;;;;7.47;3.70;;;;;;;;;;5040978;28;20205;-62
2023/09/28 10:30:26;;;;;;;4.15;3.90;;;;;;;;;;5040258;28;20277;-65
2023/09/28 10:32:53;;;;;;;4.90;4.13;;;;;;;;;;5045049;28;20212;-62
2023/09/28 10:35:29;;;;;;;3.67;3.47;;;;;;;;;;5044774;28;20684;-62
2023/09/28 10:38:16;;;;;;;3.88;3.58;;;;;;;;;;5035774;28;20207;-61
2023/09/28 10:40:44;;;;;;;3.83;3.55;;;;;;;;;;5043747;28;20204;-66
2023/09/28 10:43:13;;;;;;;3.42;3.30;;;;;;;;;;5044574;28;20254;-63
2023/09/28 10:45:41;;;;;;;3.53;3.33;;;;;;;;;;5042717;28;20212;-63
2023/09/28 10:48:08;;;;;;;3.40;3.20;;;;;;;;;;5042305;28;20302;-63
2023/09/28 10:50:39;;;;;;;3.55;3.45;;;;;;;;;;5035999;28;20228;-67
2023/09/28 10:53:06;;;;;;;4.00;3.45;;;;;;;;;;5036028;28;20222;-64
2023/09/28 10:55:33;;;;;;;3.90;3.58;;;;;;;;;;5038512;28;20203;-63
2023/09/28 10:58:04;;;;;;;3.22;3.08;;;;;;;;;;5040083;28;20207;-63
2023/09/28 11:00:33;;;;;;;3.30;3.10;;;;;;;;;;5038695;28;20215;-63
2023/09/28 11:03:01;;;;;;;3.92;3.53;;;;;;;;;;5043807;28;20203;-64
2023/09/28 11:05:28;;;;;;;3.30;3.20;;;;;;;;;;5042462;28;20666;-63
2023/09/28 11:08:00;;;;;;;4.22;3.45;;;;;;;;;;5043627;28;20295;-63
2023/09/28 11:10:27;;;;;;;3.05;2.70;;;;;;;;;;5044588;28;20603;-63
2023/09/28 11:12:54;;;;;;;3.38;3.17;;;;;;;;;;5042441;28;20208;-63
2023/09/28 11:15:23;;;;;;;9.43;3.28;;;;;;;;;;5044410;28;20219;-66
2023/09/28 11:17:52;;;;;;;3.47;3.08;;;;;;;;;;5042077;28;20451;-66
2023/09/28 11:20:20;;;;;;;3.40;3.20;;;;;;;;;;5044083;28;20207;-66
2023/09/28 11:22:52;;;;;;;3.50;3.05;;;;;;;;;;5042367;28;20239;-66
2023/09/28 11:25:21;;;;;;;3.05;2.95;;;;;;;;;;5044438;28;20832;-66
2023/09/28 11:27:49;;;;;;;4.10;3.35;;;;;;;;;;5040366;28;20630;-67
2023/09/28 11:30:20;;;;;;;4.40;3.58;;;;;;;;;;5038212;28;20219;-75
2023/09/28 11:32:51;;;;;;;3.67;3.10;;;;;;;;;;5038546;28;20239;-76
2023/09/28 11:35:18;;;;;;;3.33;3.22;;;;;;;;;;5037871;28;20203;-68
2023/09/28 11:37:45;;;;;;;3.15;2.95;;;;;;;;;;5040185;28;20728;-69
2023/09/28 11:40:13;;;;;;;3.13;2.92;;;;;;;;;;5043948;28;20215;-68
2023/09/28 11:42:42;;;;;;;5.50;3.03;;;;;;;;;;5041335;28;20682;-68
2023/09/28 11:45:12;;;;;;;3.17;2.97;;;;;;;;;;5042981;28;20584;-68
2023/09/28 11:47:39;;;;;;;3.05;2.90;;;;;;;;;;5041156;28;20207;-68
2023/09/28 11:50:07;;;;;;;3.83;3.53;;;;;;;;;;5043284;28;20273;-68
2023/09/28 11:52:35;;;;;;;3.20;3.00;;;;;;;;;;5041896;28;20219;-67
2023/09/28 11:55:02;;;;;;;2.78;2.58;;;;;;;;;;5035700;28;20205;-67
2023/09/28 11:57:29;;;;;;;3.10;2.90;;;;;;;;;;5028313;28;20273;-69
2023/09/28 11:59:58;;;;;;;2.80;2.60;;;;;;;;;;5042301;28;20215;-68
2023/09/28 12:02:25;;;;;;;3.38;3.25;;;;;;;;;;5042519;28;20203;-68
2023/09/28 12:04:52;;;;;;;2.90;2.80;;;;;;;;;;5041451;28;20680;-69
2023/09/28 12:07:19;;;;;;;3.17;3.08;;;;;;;;;;5041556;28;20204;-69
2023/09/28 12:09:46;;;;;;;3.20;3.10;;;;;;;;;;5029571;28;20243;-68
2023/09/28 12:12:13;;;;;;;3.03;2.83;;;;;;;;;;5037186;28;20330;-65
2023/09/28 12:14:40;;;;;;;3.80;3.13;;;;;;;;;;5037387;28;20681;-65
2023/09/28 12:17:09;;;;;;;3.03;2.92;;;;;;;;;;5039381;28;20215;-72
2023/09/28 12:19:36;;;;;;;5.30;3.20;;;;;;;;;;5038699;28;20207;-70
2023/09/28 12:22:03;;;;;;;3.22;3.03;;;;;;;;;;5043496;28;20275;-70
2023/09/28 12:24:30;;;;;;;3.55;3.30;;;;;;;;;;5040716;28;20219;-70
2023/09/28 12:26:59;;;;;;;4.55;3.33;;;;;;;;;;5043154;28;20288;-70
2023/09/28 12:29:26;;;;;;;4.03;3.42;;;;;;;;;;5033442;28;20591;-71
2023/09/28 12:31:53;;;;;;;2.70;2.60;;;;;;;;;;5027043;28;20604;-70
2023/09/28 12:34:25;;;;;;;3.30;3.03;;;;;;;;;;5038695;28;20702;-70
2023/09/28 12:36:52;;;;;;;2.95;2.80;;;;;;;;;;5037516;28;21263;-72
2023/09/28 12:39:21;;;;;;;4.07;3.00;;;;;;;;;;5034556;28;20215;-71
2023/09/28 12:41:49;;;;;;;3.28;2.88;;;;;;;;;;5037108;28;20200;-70
2023/09/28 12:44:17;;;;;;;2.60;2.30;;;;;;;;;;5036704;28;20212;-70
2023/09/28 12:46:44;;;;;;;5.78;2.90;;;;;;;;;;5042299;28;20207;-70
2023/09/28 12:49:15;;;;;;;3.28;2.80;;;;;;;;;;5041856;28;20475;-71
2023/09/28 12:51:46;;;;;;;2.63;2.60;;;;;;;;;;5039464;28;20223;-70
2023/09/28 12:54:15;;;;;;;3.22;3.03;;;;;;;;;;5041908;28;20199;-71
2023/09/28 12:56:42;;;;;;;3.85;3.05;;;;;;;;;;5040765;28;20645;-70
2023/09/28 12:59:09;;;;;;;2.58;2.47;;;;;;;;;;5041768;28;20898;-71
2023/09/28 13:01:36;;;;;;;8.30;3.42;;;;;;;;;;5040464;28;20318;-72
2023/09/28 13:04:05;;;;;;;4.57;2.78;;;;;;;;;;5042386;28;20559;-71
2023/09/28 13:06:32;;;;;;;2.70;2.50;;;;;;;;;;5041123;28;20599;-71
2023/09/28 13:09:00;;;;;;;3.78;2.63;;;;;;;;;;5042108;28;20218;-72
2023/09/28 13:11:28;;;;;;;4.55;2.67;;;;;;;;;;5041691;28;20231;-72
2023/09/28 13:13:55;;;;;;;3.47;2.25;;;;;;;;;;5037756;28;20220;-69
2023/09/28 13:16:24;;;;;;;3.95;2.88;;;;;;;;;;5029227;28;20208;-70
2023/09/28 13:18:55;;;;;;;2.90;2.75;;;;;;;;;;5033071;28;20296;-71
2023/09/28 13:21:22;;;;;;;3.58;2.53;;;;;;;;;;5034668;28;20690;-71
2023/09/28 13:23:49;;;;;;;3.47;2.53;;;;;;;;;;5030231;28;20284;-71
2023/09/28 13:26:17;;;;;;;3.58;2.85;;;;;;;;;;5025977;28;20216;-71
2023/09/28 13:28:45;;;;;;;2.30;2.20;;;;;;;;;;5023977;28;20219;-70
2023/09/28 13:31:13;;;;;;;2.53;2.42;;;;;;;;;;5045414;28;20212;-70
2023/09/28 13:33:40;;;;;;;4.68;2.78;;;;;;;;;;5043604;28;20223;-70
2023/09/28 13:36:08;;;;;;;2.65;2.53;;;;;;;;;;5045729;28;20317;-70
2023/09/28 13:38:36;;;;;;;2.50;2.30;;;;;;;;;;5043982;28;20307;-69
2023/09/28 13:41:04;;;;;;;3.83;2.88;;;;;;;;;;5045028;28;20215;-72
2023/09/28 13:43:33;;;;;;;2.38;2.30;;;;;;;;;;5045573;28;20298;-72
2023/09/28 13:46:00;;;;;;;2.42;2.30;;;;;;;;;;5045827;28;20310;-73
2023/09/28 13:48:28;;;;;;;2.17;2.08;;;;;;;;;;5041716;28;20204;-71
2023/09/28 13:50:57;;;;;;;2.70;2.50;;;;;;;;;;5039814;28;20312;-71
2023/09/28 13:53:25;;;;;;;2.80;2.65;;;;;;;;;;5040952;28;20331;-71
2023/09/28 13:55:52;;;;;;;2.53;2.42;;;;;;;;;;5040271;28;20215;-72
2023/09/28 13:58:20;;;;;;;2.40;2.20;;;;;;;;;;5040204;28;20211;-70
2023/09/28 14:00:50;;;;;;;2.20;2.10;;;;;;;;;;5042810;28;20748;-71
2023/09/28 14:03:17;;;;;;;2.75;2.55;;;;;;;;;;5043246;28;20657;-70
2023/09/28 14:05:45;;;;;;;3.03;2.47;;;;;;;;;;5045058;28;20203;-71
2023/09/28 14:08:13;;;;;;;5.88;2.97;;;;;;;;;;5045013;28;20654;-72
2023/09/28 14:10:40;;;;;;;2.55;2.30;;;;;;;;;;5043300;28;20211;-72
2023/09/28 14:13:07;;;;;;;2.88;2.30;;;;;;;;;;5043823;28;20720;-72
2023/09/28 14:15:34;;;;;;;4.10;2.17;;;;;;;;;;5043287;28;20207;-72
2023/09/28 14:18:02;;;;;;;3.55;2.55;;;;;;;;;;5044719;28;20277;-72
2023/09/28 14:20:29;;;;;;;2.80;2.25;;;;;;;;;;5044815;28;20353;-72
2023/09/28 14:22:56;;;;;;;3.08;2.50;;;;;;;;;;5038481;28;20223;-72
2023/09/28 14:25:23;;;;;;;3.88;2.45;;;;;;;;;;5040156;28;20207;-70
2023/09/28 14:27:50;;;;;;;5.45;2.30;;;;;;;;;;5042496;28;20211;-72
2023/09/28 14:30:18;;;;;;;2.35;2.30;;;;;;;;;;5028425;28;20212;-73
2023/09/28 14:32:45;;;;;;;2.65;2.10;;;;;;;;;;5019262;28;20224;-67
2023/09/28 14:35:15;;;;;;;6.70;2.20;;;;;;;;;;5019451;28;20685;-71
2023/09/28 14:37:42;;;;;;;3.08;2.40;;;;;;;;;;5033230;28;20238;-83
2023/09/28 14:40:12;;;;;;;4.78;2.00;;;;;;;;;;5029104;28;20208;-72
2023/09/28 14:42:40;;;;;;;2.15;2.13;;;;;;;;;;5031882;28;20215;-72
2023/09/28 14:45:08;;;;;;;2.38;2.00;;;;;;;;;;5032927;28;20215;-73